Time;durP1;ratioP1;P1;durP2;ratioP2;P2;SDS_P1;SDS_P2;PMS_P1;PMS_P2;Temp;Humidity;BMP_temperature;BMP_pressure;BME280_temperature;BME280_humidity;BME280_pressure;Samples;Min_cycle;Max_cycle;Signal;HPM_P1;HPM_P2
2022/05/14 00:00:55;;;;;;;;;;;16.40;65.10;;;;;;5065992;28;19913;-69
2022/05/14 00:03:20;;;;;;;;;;;16.40;65.50;;;;;;5045391;28;19995;-69
2022/05/14 00:05:47;;;;;;;;;;;16.40;65.40;;;;;;5065694;28;19912;-70
2022/05/14 00:08:12;;;;;;;;;;;16.30;65.50;;;;;;5040951;28;19924;-69
2022/05/14 00:13:23;;;;;;;;;;;16.30;65.80;;;;;;5056714;28;20439;-69
2022/05/14 00:15:48;;;;;;;;;;;16.30;66.00;;;;;;5059913;28;19920;-69
2022/05/14 00:18:14;;;;;;;;;;;16.20;66.00;;;;;;5045600;28;20563;-69
2022/05/14 00:20:40;;;;;;;;;;;16.20;66.20;;;;;;5058967;28;19923;-69
2022/05/14 00:23:05;;;;;;;;;;;16.20;66.20;;;;;;5065421;28;19909;-69
2022/05/14 00:25:31;;;;;;;;;;;16.20;66.90;;;;;;5063022;28;20279;-69
2022/05/14 00:27:57;;;;;;;;;;;16.10;66.20;;;;;;5053717;28;19920;-69
2022/05/14 00:30:24;;;;;;;;;;;16.10;66.40;;;;;;5043161;28;19999;-70
2022/05/14 00:32:50;;;;;;;;;;;16.00;66.40;;;;;;5045813;28;19910;-69
2022/05/14 00:35:16;;;;;;;;;;;16.00;66.50;;;;;;5029020;28;19916;-69
2022/05/14 00:37:42;;;;;;;;;;;16.00;66.70;;;;;;5042779;28;19913;-69
2022/05/14 00:40:10;;;;;;;;;;;16.00;66.60;;;;;;5028400;28;19928;-69
2022/05/14 00:42:36;;;;;;;;;;;16.00;67.20;;;;;;5037997;28;19910;-69
2022/05/14 00:45:01;;;;;;;;;;;15.90;67.30;;;;;;5024916;28;19956;-69
2022/05/14 00:47:31;;;;;;;;;;;15.90;67.10;;;;;;5044091;28;19992;-70
2022/05/14 00:49:57;;;;;;;;;;;15.90;66.90;;;;;;5042856;28;19920;-70
2022/05/14 00:52:22;;;;;;;;;;;15.90;66.90;;;;;;5026975;28;19913;-69
2022/05/14 00:55:00;;;;;;;;;;;15.80;67.10;;;;;;5045079;28;19917;-69
2022/05/14 00:57:27;;;;;;;;;;;15.80;67.10;;;;;;5036908;28;19924;-69
2022/05/14 00:59:53;;;;;;;;;;;15.80;67.70;;;;;;5044924;28;20634;-69
2022/05/14 01:02:19;;;;;;;;;;;15.80;67.50;;;;;;5042185;28;19916;-70
2022/05/14 01:04:45;;;;;;;;;;;15.70;68.10;;;;;;5044216;28;19912;-69
2022/05/14 01:07:15;;;;;;;;;;;15.70;68.20;;;;;;5041866;28;19925;-69
2022/05/14 01:09:43;;;;;;;;;;;15.70;68.10;;;;;;5026430;28;19968;-68
2022/05/14 01:12:08;;;;;;;;;;;15.70;68.60;;;;;;5034328;28;19924;-69
2022/05/14 01:14:34;;;;;;;;;;;15.70;68.40;;;;;;5026303;28;19913;-69
2022/05/14 01:17:00;;;;;;;;;;;15.70;68.30;;;;;;5024533;28;19917;-69
2022/05/14 01:19:25;;;;;;;;;;;15.60;68.30;;;;;;5044736;28;19990;-69
2022/05/14 01:21:57;;;;;;;;;;;15.60;69.10;;;;;;5041757;28;19956;-69
2022/05/14 01:27:13;;;;;;;;;;;15.60;68.70;;;;;;5041145;28;20277;-69
2022/05/14 01:29:40;;;;;;;;;;;15.50;69.20;;;;;;5044205;28;19913;-69
2022/05/14 01:32:06;;;;;;;;;;;15.50;69.50;;;;;;5041506;28;19948;-69
2022/05/14 01:34:32;;;;;;;;;;;15.50;69.30;;;;;;5021366;28;20362;-69
2022/05/14 01:36:59;;;;;;;;;;;15.50;69.10;;;;;;5014629;28;20112;-69
2022/05/14 01:39:25;;;;;;;;;;;15.40;69.70;;;;;;5027217;28;19943;-69
2022/05/14 01:41:51;;;;;;;;;;;15.40;69.20;;;;;;5023496;28;19917;-69
2022/05/14 01:44:17;;;;;;;;;;;15.40;69.80;;;;;;5042797;28;19917;-69
2022/05/14 01:46:42;;;;;;;;;;;15.40;69.40;;;;;;5044488;28;19955;-69
2022/05/14 01:49:08;;;;;;;;;;;15.40;69.50;;;;;;5042030;28;19955;-69
2022/05/14 01:51:33;;;;;;;;;;;15.30;70.20;;;;;;5044536;28;20281;-69
2022/05/14 01:53:59;;;;;;;;;;;15.30;70.00;;;;;;5041969;28;20011;-70
2022/05/14 01:56:25;;;;;;;;;;;15.30;70.50;;;;;;5022724;28;19913;-69
2022/05/14 01:58:51;;;;;;;;;;;15.30;70.90;;;;;;5042540;28;19913;-69
2022/05/14 02:01:16;;;;;;;;;;;15.30;70.90;;;;;;5048284;28;19912;-70
2022/05/14 02:03:44;;;;;;;;;;;15.20;70.90;;;;;;5045609;28;20011;-70
2022/05/14 02:06:09;;;;;;;;;;;15.20;70.50;;;;;;5047500;28;19952;-69
2022/05/14 02:08:35;;;;;;;;;;;15.20;70.90;;;;;;5035861;28;20585;-69
2022/05/14 02:11:01;;;;;;;;;;;15.20;70.80;;;;;;5046258;28;19913;-69
2022/05/14 02:13:26;;;;;;;;;;;15.20;71.20;;;;;;5031277;28;20309;-69
2022/05/14 02:15:53;;;;;;;;;;;15.10;71.00;;;;;;5027806;28;19913;-69
2022/05/14 02:18:19;;;;;;;;;;;15.10;71.40;;;;;;5008865;28;20462;-69
2022/05/14 02:20:44;;;;;;;;;;;15.10;71.60;;;;;;5046691;28;19915;-69
2022/05/14 02:23:11;;;;;;;;;;;15.10;71.40;;;;;;5047603;28;19917;-69
2022/05/14 02:25:37;;;;;;;;;;;15.10;71.50;;;;;;5042155;28;19963;-68
2022/05/14 02:28:03;;;;;;;;;;;15.10;71.70;;;;;;5047321;28;20329;-69
2022/05/14 02:30:29;;;;;;;;;;;15.00;71.70;;;;;;5045131;28;19924;-69
2022/05/14 02:32:54;;;;;;;;;;;15.00;71.60;;;;;;5047449;28;19962;-69
2022/05/14 02:35:20;;;;;;;;;;;15.00;71.90;;;;;;5029703;28;19979;-70
2022/05/14 02:37:45;;;;;;;;;;;15.00;72.10;;;;;;5027545;28;20257;-69
2022/05/14 02:40:11;;;;;;;;;;;15.00;72.00;;;;;;5034263;28;19924;-69
2022/05/14 02:42:36;;;;;;;;;;;14.90;72.20;;;;;;5047561;28;19913;-69
2022/05/14 02:45:02;;;;;;;;;;;15.00;72.10;;;;;;5045145;28;19923;-70
2022/05/14 02:47:30;;;;;;;;;;;14.90;72.20;;;;;;5047085;28;20351;-70
2022/05/14 02:49:56;;;;;;;;;;;14.90;72.30;;;;;;5042344;28;20665;-69
2022/05/14 02:52:23;;;;;;;;;;;14.90;72.30;;;;;;5047145;28;19919;-69
2022/05/14 02:54:49;;;;;;;;;;;14.90;72.50;;;;;;5044693;28;19963;-69
2022/05/14 02:57:14;;;;;;;;;;;14.90;72.40;;;;;;5047120;28;19917;-68
2022/05/14 02:59:40;;;;;;;;;;;14.90;72.50;;;;;;5047292;28;20373;-69
2022/05/14 03:02:05;;;;;;;;;;;14.80;72.70;;;;;;5044694;28;20441;-69
2022/05/14 03:04:32;;;;;;;;;;;14.80;72.50;;;;;;5046976;28;20375;-69
2022/05/14 03:06:58;;;;;;;;;;;14.80;72.70;;;;;;5044377;28;19956;-69
2022/05/14 03:09:24;;;;;;;;;;;14.80;72.30;;;;;;5029421;28;19914;-69
2022/05/14 03:11:50;;;;;;;;;;;14.80;72.30;;;;;;5032018;28;19917;-69
2022/05/14 03:14:15;;;;;;;;;;;14.80;72.50;;;;;;5026848;28;19988;-69
2022/05/14 03:16:42;;;;;;;;;;;14.70;72.30;;;;;;5034225;28;20337;-69
2022/05/14 03:19:07;;;;;;;;;;;14.70;72.40;;;;;;5047043;28;19916;-69
2022/05/14 03:21:33;;;;;;;;;;;14.80;72.60;;;;;;5042850;28;19940;-69
2022/05/14 03:23:59;;;;;;;;;;;14.70;72.60;;;;;;5046456;28;20013;-69
2022/05/14 03:26:24;;;;;;;;;;;14.70;72.50;;;;;;5043691;28;19916;-69
2022/05/14 03:28:50;;;;;;;;;;;14.70;72.30;;;;;;5046762;28;19997;-68
2022/05/14 03:31:15;;;;;;;;;;;14.60;72.40;;;;;;5039307;28;19988;-69
2022/05/14 03:33:41;;;;;;;;;;;14.70;72.60;;;;;;5037457;28;19914;-68
2022/05/14 03:36:06;;;;;;;;;;;14.60;72.70;;;;;;5006414;28;20407;-69
2022/05/14 03:38:32;;;;;;;;;;;14.60;72.40;;;;;;5030951;28;20062;-68
2022/05/14 03:40:57;;;;;;;;;;;14.60;72.50;;;;;;5025802;28;19916;-69
2022/05/14 03:43:23;;;;;;;;;;;14.60;72.50;;;;;;5039183;28;19917;-68
2022/05/14 03:45:48;;;;;;;;;;;14.60;72.40;;;;;;5046167;28;19913;-68
2022/05/14 03:48:14;;;;;;;;;;;14.60;72.40;;;;;;5022262;28;19921;-68
2022/05/14 03:50:39;;;;;;;;;;;14.60;72.50;;;;;;5041429;28;20038;-68
2022/05/14 03:53:05;;;;;;;;;;;14.60;72.40;;;;;;5043172;28;20007;-69
2022/05/14 03:55:30;;;;;;;;;;;14.50;72.40;;;;;;5045575;28;19917;-68
2022/05/14 03:57:56;;;;;;;;;;;14.50;72.30;;;;;;5043265;28;19916;-69
2022/05/14 04:00:21;;;;;;;;;;;14.50;72.30;;;;;;5046112;28;19920;-69
2022/05/14 04:02:47;;;;;;;;;;;14.50;72.30;;;;;;5043886;28;20701;-68
2022/05/14 04:05:13;;;;;;;;;;;14.50;72.20;;;;;;5045945;28;19920;-68
2022/05/14 04:07:40;;;;;;;;;;;14.50;72.10;;;;;;5042746;28;20369;-69
2022/05/14 04:10:06;;;;;;;;;;;14.50;72.40;;;;;;5012444;28;19921;-69
2022/05/14 04:12:31;;;;;;;;;;;14.50;72.30;;;;;;5012292;28;19916;-68
2022/05/14 04:14:57;;;;;;;;;;;14.50;72.40;;;;;;5040823;28;19913;-68
2022/05/14 04:17:22;;;;;;;;;;;14.50;72.40;;;;;;5044134;28;19917;-69
2022/05/14 04:19:48;;;;;;;;;;;14.50;72.40;;;;;;5042520;28;19913;-69
2022/05/14 04:22:13;;;;;;;;;;;14.40;72.50;;;;;;5045298;28;19917;-69
2022/05/14 04:24:39;;;;;;;;;;;14.40;72.50;;;;;;5038134;28;19917;-69
2022/05/14 04:27:04;;;;;;;;;;;14.40;72.30;;;;;;5023143;28;20032;-69
2022/05/14 04:29:30;;;;;;;;;;;14.40;72.30;;;;;;5028872;28;20011;-69
2022/05/14 04:31:55;;;;;;;;;;;14.40;72.20;;;;;;5045419;28;19908;-69
2022/05/14 04:34:21;;;;;;;;;;;14.40;72.30;;;;;;5040442;28;19982;-69
2022/05/14 04:36:46;;;;;;;;;;;14.40;72.00;;;;;;5045119;28;19921;-69
2022/05/14 04:39:12;;;;;;;;;;;14.40;72.20;;;;;;5032629;28;19916;-69
2022/05/14 04:41:37;;;;;;;;;;;14.40;72.10;;;;;;5045178;28;20066;-69
2022/05/14 04:44:03;;;;;;;;;;;14.40;72.00;;;;;;5042997;28;19912;-69
2022/05/14 04:46:29;;;;;;;;;;;14.40;72.10;;;;;;5044560;28;19909;-69
2022/05/14 04:48:54;;;;;;;;;;;14.40;72.10;;;;;;5044462;28;20023;-69
2022/05/14 04:51:20;;;;;;;;;;;14.30;71.90;;;;;;5041848;28;19936;-69
2022/05/14 04:53:45;;;;;;;;;;;14.30;71.90;;;;;;5044186;28;19924;-68
2022/05/14 04:56:11;;;;;;;;;;;14.40;71.90;;;;;;5041417;28;19917;-68
2022/05/14 04:58:37;;;;;;;;;;;14.40;71.90;;;;;;5043944;28;19956;-69
2022/05/14 05:01:02;;;;;;;;;;;14.30;71.50;;;;;;5041719;28;19923;-69
2022/05/14 05:03:28;;;;;;;;;;;14.30;71.60;;;;;;5044029;28;20357;-69
2022/05/14 05:05:55;;;;;;;;;;;14.30;71.50;;;;;;5024827;28;19916;-69
2022/05/14 05:08:22;;;;;;;;;;;14.40;71.60;;;;;;5020287;28;19971;-69
2022/05/14 05:10:48;;;;;;;;;;;14.40;71.50;;;;;;5021960;28;20072;-69
2022/05/14 05:13:15;;;;;;;;;;;14.40;71.40;;;;;;5017660;28;19914;-69
2022/05/14 05:15:41;;;;;;;;;;;14.40;71.20;;;;;;5009742;28;19925;-69
2022/05/14 05:18:07;;;;;;;;;;;14.30;71.30;;;;;;5027485;28;19913;-69
2022/05/14 05:20:32;;;;;;;;;;;14.30;71.40;;;;;;5033448;28;19917;-68
2022/05/14 05:22:58;;;;;;;;;;;14.40;71.40;;;;;;5031433;28;20336;-69
2022/05/14 05:25:23;;;;;;;;;;;14.40;71.60;;;;;;5043628;28;20171;-69
2022/05/14 05:27:49;;;;;;;;;;;14.40;71.20;;;;;;5052391;28;19928;-68
2022/05/14 05:30:15;;;;;;;;;;;14.40;71.30;;;;;;5053349;28;19913;-69
2022/05/14 05:32:40;;;;;;;;;;;14.30;71.00;;;;;;5048995;28;19921;-69
2022/05/14 05:35:06;;;;;;;;;;;14.40;71.20;;;;;;5048057;28;19913;-69
2022/05/14 05:37:32;;;;;;;;;;;14.30;71.10;;;;;;5053329;28;20573;-69
2022/05/14 05:39:57;;;;;;;;;;;14.30;71.00;;;;;;5047943;28;20011;-69
2022/05/14 05:42:23;;;;;;;;;;;14.40;71.50;;;;;;5051250;28;19917;-69
2022/05/14 05:44:48;;;;;;;;;;;14.30;70.80;;;;;;5067675;28;19913;-69
2022/05/14 05:47:14;;;;;;;;;;;14.30;70.80;;;;;;5058518;28;19926;-69
2022/05/14 05:49:40;;;;;;;;;;;14.30;70.60;;;;;;5067449;28;19913;-69
2022/05/14 05:52:06;;;;;;;;;;;14.30;70.60;;;;;;5065543;28;20025;-69
2022/05/14 05:57:15;;;;;;;;;;;14.30;70.60;;;;;;5065662;28;20359;-70
2022/05/14 05:59:41;;;;;;;;;;;14.30;70.70;;;;;;5066710;28;19916;-69
2022/05/14 06:02:08;;;;;;;;;;;14.20;70.40;;;;;;5037187;28;19924;-69
2022/05/14 06:04:34;;;;;;;;;;;14.30;70.80;;;;;;5060204;28;20365;-69
2022/05/14 06:06:59;;;;;;;;;;;14.30;70.40;;;;;;5066791;28;19912;-68
2022/05/14 06:09:26;;;;;;;;;;;14.30;70.60;;;;;;5034102;28;19968;-69
2022/05/14 06:11:52;;;;;;;;;;;14.30;70.50;;;;;;5027371;28;19995;-69
2022/05/14 06:14:18;;;;;;;;;;;14.30;70.30;;;;;;5053712;28;20668;-69
2022/05/14 06:16:44;;;;;;;;;;;14.30;70.40;;;;;;5067110;28;19944;-68
2022/05/14 06:19:10;;;;;;;;;;;14.30;70.30;;;;;;5064529;28;19916;-69
2022/05/14 06:21:36;;;;;;;;;;;14.30;70.20;;;;;;5054877;28;19913;-69
2022/05/14 06:24:02;;;;;;;;;;;14.30;70.30;;;;;;5051456;28;19916;-69
2022/05/14 06:26:28;;;;;;;;;;;14.30;70.20;;;;;;5066472;28;19913;-69
2022/05/14 06:28:54;;;;;;;;;;;14.30;70.40;;;;;;5064038;28;19965;-69
2022/05/14 06:31:20;;;;;;;;;;;14.30;70.90;;;;;;5066725;28;19916;-69
2022/05/14 06:33:45;;;;;;;;;;;14.30;70.20;;;;;;5064420;28;20349;-70
2022/05/14 06:36:11;;;;;;;;;;;14.40;70.20;;;;;;5066489;28;20003;-69
2022/05/14 06:38:37;;;;;;;;;;;14.40;70.20;;;;;;5056602;28;19912;-69
2022/05/14 06:41:07;;;;;;;;;;;14.30;70.20;;;;;;5062564;28;19959;-70
2022/05/14 06:43:32;;;;;;;;;;;14.40;70.10;;;;;;5065563;28;19920;-69
2022/05/14 06:45:58;;;;;;;;;;;14.40;70.30;;;;;;5063202;28;19943;-69
2022/05/14 06:48:23;;;;;;;;;;;14.40;70.00;;;;;;5066418;28;19920;-69
2022/05/14 06:50:50;;;;;;;;;;;14.40;70.20;;;;;;5064127;28;20025;-69
2022/05/14 06:53:17;;;;;;;;;;;14.40;70.10;;;;;;5066371;28;19947;-69
2022/05/14 06:55:44;;;;;;;;;;;14.40;70.20;;;;;;5063885;28;19966;-69
2022/05/14 06:58:12;;;;;;;;;;;14.40;70.10;;;;;;5066358;28;20688;-69
2022/05/14 07:00:38;;;;;;;;;;;14.40;70.10;;;;;;5062692;28;19920;-69
2022/05/14 07:08:32;;;;;;;;;;;14.50;70.00;;;;;;5056401;28;19928;-69
2022/05/14 07:10:58;;;;;;;;;;;14.50;69.90;;;;;;5050539;28;19913;-70
2022/05/14 07:13:23;;;;;;;;;;;14.50;70.00;;;;;;5056257;28;19920;-69
2022/05/14 07:15:49;;;;;;;;;;;14.50;69.90;;;;;;5047872;28;19999;-69
2022/05/14 07:18:14;;;;;;;;;;;14.50;70.10;;;;;;5065846;28;19939;-70
2022/05/14 07:20:40;;;;;;;;;;;14.60;70.00;;;;;;5051001;28;19917;-70
2022/05/14 07:23:05;;;;;;;;;;;14.50;70.10;;;;;;5047512;28;20328;-70
2022/05/14 07:25:31;;;;;;;;;;;14.60;70.00;;;;;;5053488;28;19913;-70
2022/05/14 07:27:58;;;;;;;;;;;14.60;69.90;;;;;;5061662;28;20278;-70
2022/05/14 07:30:23;;;;;;;;;;;14.60;70.00;;;;;;5065276;28;20623;-69
2022/05/14 07:32:49;;;;;;;;;;;14.70;69.90;;;;;;5057403;28;19916;-68
2022/05/14 07:35:14;;;;;;;;;;;14.70;70.00;;;;;;5036150;28;20442;-69
2022/05/14 07:37:42;;;;;;;;;;;14.70;70.00;;;;;;5033654;28;19928;-69
2022/05/14 07:40:10;;;;;;;;;;;14.70;70.00;;;;;;5039887;28;19920;-69
2022/05/14 07:42:47;;;;;;;;;;;14.70;70.00;;;;;;5042091;28;19916;-69
2022/05/14 07:45:17;;;;;;;;;;;14.70;70.00;;;;;;5065000;28;19913;-69
2022/05/14 07:47:43;;;;;;;;;;;14.80;70.00;;;;;;5046731;28;20006;-69
2022/05/14 07:50:09;;;;;;;;;;;14.80;69.90;;;;;;5045203;28;19916;-69
2022/05/14 07:52:35;;;;;;;;;;;14.80;69.70;;;;;;5041593;28;19920;-69
2022/05/14 07:55:01;;;;;;;;;;;14.80;69.70;;;;;;5040150;28;20024;-70
2022/05/14 07:57:27;;;;;;;;;;;14.90;70.20;;;;;;5045280;28;20023;-69
2022/05/14 07:59:52;;;;;;;;;;;14.90;69.80;;;;;;5038346;28;19913;-69
2022/05/14 08:02:20;;;;;;;;;;;14.90;69.60;;;;;;5045319;28;19919;-69
2022/05/14 08:04:45;;;;;;;;;;;14.90;69.70;;;;;;5040650;28;19919;-68
2022/05/14 08:07:11;;;;;;;;;;;14.90;69.60;;;;;;5043711;28;19913;-69
2022/05/14 08:09:36;;;;;;;;;;;15.00;69.60;;;;;;5045704;28;20288;-69
2022/05/14 08:12:02;;;;;;;;;;;15.00;69.60;;;;;;5039884;28;19912;-69
2022/05/14 08:14:29;;;;;;;;;;;15.00;69.90;;;;;;5045243;28;19913;-69
2022/05/14 08:16:54;;;;;;;;;;;15.10;69.40;;;;;;5041388;28;19913;-69
2022/05/14 08:19:20;;;;;;;;;;;15.00;69.80;;;;;;5046131;28;19917;-69
2022/05/14 08:24:30;;;;;;;;;;;15.10;69.40;;;;;;5044145;28;20354;-69
2022/05/14 08:26:56;;;;;;;;;;;15.10;69.20;;;;;;5045191;28;19917;-69
2022/05/14 08:29:22;;;;;;;;;;;15.10;69.10;;;;;;5040007;28;19912;-70
2022/05/14 08:31:48;;;;;;;;;;;15.20;69.20;;;;;;5045291;28;19920;-69
2022/05/14 08:34:13;;;;;;;;;;;15.20;69.60;;;;;;5019193;28;20000;-69
2022/05/14 08:36:39;;;;;;;;;;;15.30;69.10;;;;;;5025486;28;20004;-69
2022/05/14 08:39:04;;;;;;;;;;;15.30;69.10;;;;;;5017174;28;19948;-69
2022/05/14 08:41:32;;;;;;;;;;;15.30;69.00;;;;;;5042026;28;19924;-70
2022/05/14 08:43:59;;;;;;;;;;;15.30;69.30;;;;;;5045438;28;20424;-69
2022/05/14 08:46:25;;;;;;;;;;;15.30;69.10;;;;;;5037736;28;20274;-69
2022/05/14 08:48:53;;;;;;;;;;;15.40;69.00;;;;;;5045093;28;19921;-69
2022/05/14 08:51:30;;;;;;;;;;;15.40;68.90;;;;;;5038230;28;20007;-71
2022/05/14 08:53:56;;;;;;;;;;;15.40;69.00;;;;;;5045324;28;19917;-69
2022/05/14 08:56:21;;;;;;;;;;;15.50;69.10;;;;;;5045592;28;20657;-69
2022/05/14 08:58:59;;;;;;;;;;;15.50;69.30;;;;;;5065142;28;20532;-70
2022/05/14 09:01:26;;;;;;;;;;;15.50;68.80;;;;;;5062469;28;20629;-69
2022/05/14 09:03:52;;;;;;;;;;;15.60;68.70;;;;;;5065044;28;19912;-69
2022/05/14 09:06:18;;;;;;;;;;;15.60;68.60;;;;;;5038236;28;20051;-69
2022/05/14 09:08:43;;;;;;;;;;;15.70;68.70;;;;;;5039082;28;20467;-69
2022/05/14 09:11:18;;;;;;;;;;;15.70;68.50;;;;;;5049357;28;19909;-69
2022/05/14 09:13:46;;;;;;;;;;;15.70;68.60;;;;;;5053419;28;20470;-70
2022/05/14 09:16:27;;;;;;;;;;;15.80;68.90;;;;;;5054542;28;20632;-70
2022/05/14 09:18:53;;;;;;;;;;;15.80;69.50;;;;;;5066455;28;19978;-69
2022/05/14 09:21:21;;;;;;;;;;;15.80;68.60;;;;;;5051234;28;19916;-70
2022/05/14 09:23:50;;;;;;;;;;;15.90;68.50;;;;;;5062318;28;19912;-69
2022/05/14 09:26:20;;;;;;;;;;;15.90;68.50;;;;;;5068632;28;19978;-70
2022/05/14 09:28:48;;;;;;;;;;;16.00;68.40;;;;;;5066154;28;19920;-69
2022/05/14 09:31:34;;;;;;;;;;;16.10;68.30;;;;;;5068458;28;20304;-70
2022/05/14 09:34:04;;;;;;;;;;;16.10;68.30;;;;;;5057043;28;19952;-69
2022/05/14 09:36:30;;;;;;;;;;;16.10;68.20;;;;;;5048583;28;20531;-69
2022/05/14 09:39:22;;;;;;;;;;;16.20;68.70;;;;;;5058417;28;20419;-69
2022/05/14 09:41:56;;;;;;;;;;;16.30;68.60;;;;;;5063913;28;19913;-69
2022/05/14 09:44:24;;;;;;;;;;;16.30;67.70;;;;;;5065919;28;20264;-69
2022/05/14 09:46:50;;;;;;;;;;;16.40;67.80;;;;;;5048771;28;19912;-69
2022/05/14 09:49:24;;;;;;;;;;;16.40;67.90;;;;;;5055139;28;20363;-69
2022/05/14 09:51:52;;;;;;;;;;;16.50;67.70;;;;;;5068347;28;20396;-70
2022/05/14 09:54:23;;;;;;;;;;;16.50;67.40;;;;;;5065830;28;20606;-70
2022/05/14 09:56:51;;;;;;;;;;;16.60;67.30;;;;;;5067962;28;19962;-69
2022/05/14 09:59:32;;;;;;;;;;;16.60;67.30;;;;;;5047520;28;19924;-70
2022/05/14 10:02:16;;;;;;;;;;;16.70;67.70;;;;;;5060099;28;19908;-70
2022/05/14 10:04:56;;;;;;;;;;;16.70;67.30;;;;;;5055923;28;20462;-69
2022/05/14 10:07:25;;;;;;;;;;;16.70;67.40;;;;;;5067479;28;19939;-70
2022/05/14 10:10:16;;;;;;;;;;;16.70;67.80;;;;;;5055612;28;20761;-69
2022/05/14 10:12:50;;;;;;;;;;;16.80;67.60;;;;;;5025132;28;20084;-69
2022/05/14 10:15:22;;;;;;;;;;;16.90;67.20;;;;;;5057231;28;20436;-69
2022/05/14 10:18:02;;;;;;;;;;;17.10;67.10;;;;;;5067269;28;19916;-69
2022/05/14 10:20:35;;;;;;;;;;;17.10;67.10;;;;;;5055338;28;19917;-69
2022/05/14 10:28:35;;;;;;;;;;;17.20;67.40;;;;;;5046223;28;19947;-69
2022/05/14 10:31:11;;;;;;;;;;;17.30;67.40;;;;;;5056033;28;19916;-69
2022/05/14 10:33:37;;;;;;;;;;;17.40;67.20;;;;;;5047270;28;19923;-69
2022/05/14 10:36:17;;;;;;;;;;;17.50;66.80;;;;;;5051026;28;20301;-69
2022/05/14 10:38:53;;;;;;;;;;;17.60;66.80;;;;;;5056058;28;20289;-69
2022/05/14 10:41:26;;;;;;;;;;;17.80;67.00;;;;;;5057327;28;19916;-69
2022/05/14 10:43:57;;;;;;;;;;;17.90;67.10;;;;;;5067631;28;20430;-69
2022/05/14 10:46:24;;;;;;;;;;;18.00;67.10;;;;;;5061392;28;20376;-69
2022/05/14 10:48:56;;;;;;;;;;;18.10;67.30;;;;;;5046709;28;20003;-70
2022/05/14 10:51:32;;;;;;;;;;;18.20;67.10;;;;;;5034914;28;20332;-69
2022/05/14 10:54:00;;;;;;;;;;;18.20;67.30;;;;;;5066748;28;19955;-69
2022/05/14 10:56:27;;;;;;;;;;;18.30;67.00;;;;;;5063090;28;19916;-69
2022/05/14 10:59:02;;;;;;;;;;;18.50;66.80;;;;;;5066272;28;19952;-69
2022/05/14 11:01:28;;;;;;;;;;;18.60;67.00;;;;;;5039344;28;20404;-69
2022/05/14 11:04:13;;;;;;;;;;;18.70;66.90;;;;;;5030549;28;19917;-69
2022/05/14 11:06:50;;;;;;;;;;;18.90;67.10;;;;;;5042967;28;19944;-69
2022/05/14 11:09:20;;;;;;;;;;;19.00;66.60;;;;;;5039153;28;20003;-69
2022/05/14 11:11:55;;;;;;;;;;;19.20;66.20;;;;;;5039079;28;19922;-68
2022/05/14 11:14:21;;;;;;;;;;;19.30;66.50;;;;;;5043634;28;20393;-69
2022/05/14 11:16:51;;;;;;;;;;;19.40;66.80;;;;;;5054431;28;19991;-69
2022/05/14 11:19:28;;;;;;;;;;;19.40;66.90;;;;;;5057085;28;20262;-69
2022/05/14 11:21:55;;;;;;;;;;;19.60;66.60;;;;;;5063554;28;19916;-69
2022/05/14 11:24:30;;;;;;;;;;;19.70;66.60;;;;;;5066405;28;19920;-69
2022/05/14 11:26:56;;;;;;;;;;;19.80;66.40;;;;;;5063586;28;20000;-68
2022/05/14 11:29:26;;;;;;;;;;;20.00;66.50;;;;;;5066164;28;20287;-68
2022/05/14 11:32:01;;;;;;;;;;;20.10;66.20;;;;;;5064970;28;20516;-68
2022/05/14 11:34:26;;;;;;;;;;;20.20;66.10;;;;;;5026509;28;20464;-68
2022/05/14 11:36:54;;;;;;;;;;;20.30;65.70;;;;;;5008071;28;19913;-70
2022/05/14 11:39:20;;;;;;;;;;;20.20;66.10;;;;;;5045531;28;19917;-70
2022/05/14 11:41:46;;;;;;;;;;;20.30;65.90;;;;;;5044461;28;19920;-70
2022/05/14 11:44:11;;;;;;;;;;;20.40;65.90;;;;;;5059707;28;19965;-70
2022/05/14 11:46:40;;;;;;;;;;;20.40;66.10;;;;;;5065663;28;19923;-71
2022/05/14 11:49:09;;;;;;;;;;;20.30;66.30;;;;;;5063678;28;20410;-71
2022/05/14 11:51:54;;;;;;;;;;;20.30;66.20;;;;;;5065837;28;20075;-71
2022/05/14 11:54:32;;;;;;;;;;;20.30;66.50;;;;;;5040859;28;19920;-72
2022/05/14 11:57:03;;;;;;;;;;;20.40;66.60;;;;;;5025904;28;20012;-71
2022/05/14 11:59:29;;;;;;;;;;;20.50;66.60;;;;;;5032384;28;20019;-71
2022/05/14 12:01:59;;;;;;;;;;;20.60;66.70;;;;;;5058484;28;20007;-70
2022/05/14 12:04:37;;;;;;;;;;;20.70;66.50;;;;;;5054641;28;19912;-71
2022/05/14 12:07:19;;;;;;;;;;;20.80;66.20;;;;;;5047611;28;19921;-71
2022/05/14 12:09:44;;;;;;;;;;;20.80;66.20;;;;;;5056290;28;19981;-71
2022/05/14 12:12:23;;;;;;;;;;;20.90;65.70;;;;;;5065925;28;19920;-70
2022/05/14 12:14:49;;;;;;;;;;;21.00;65.30;;;;;;5045550;28;19916;-71
2022/05/14 12:17:16;;;;;;;;;;;21.00;65.70;;;;;;5064977;28;19923;-71
2022/05/14 12:19:44;;;;;;;;;;;21.00;65.90;;;;;;5059954;28;20345;-70
2022/05/14 12:22:15;;;;;;;;;;;21.00;66.00;;;;;;5030593;28;20507;-70
2022/05/14 12:24:51;;;;;;;;;;;21.00;65.80;;;;;;5038794;28;19921;-71
2022/05/14 12:27:18;;;;;;;;;;;21.10;65.30;;;;;;5034962;28;20461;-71
2022/05/14 12:29:54;;;;;;;;;;;21.20;66.10;;;;;;5037920;28;19962;-70
2022/05/14 12:35:22;;;;;;;;;;;21.40;66.00;;;;;;5035016;28;19920;-70
2022/05/14 12:37:50;;;;;;;;;;;21.50;65.40;;;;;;5036345;28;19913;-71
2022/05/14 12:40:23;;;;;;;;;;;21.60;65.90;;;;;;5037072;28;19916;-70
2022/05/14 12:42:48;;;;;;;;;;;21.60;65.50;;;;;;5037503;28;19912;-69
2022/05/14 12:45:14;;;;;;;;;;;21.60;65.30;;;;;;5037836;28;19916;-69
2022/05/14 12:47:39;;;;;;;;;;;21.60;65.30;;;;;;5045179;28;19956;-67
2022/05/14 12:50:30;;;;;;;;;;;21.60;65.20;;;;;;5038702;28;19921;-70
2022/05/14 12:52:58;;;;;;;;;;;21.80;65.40;;;;;;5029098;28;20539;-70
2022/05/14 12:55:25;;;;;;;;;;;21.80;65.10;;;;;;5055659;28;19927;-70
2022/05/14 12:57:51;;;;;;;;;;;22.00;65.30;;;;;;5047028;28;19924;-70
2022/05/14 13:00:18;;;;;;;;;;;22.00;65.00;;;;;;5037365;28;20381;-70
2022/05/14 13:02:55;;;;;;;;;;;22.20;65.00;;;;;;5045604;28;19917;-70
2022/05/14 13:05:26;;;;;;;;;;;22.30;64.60;;;;;;5040926;28;19913;-70
2022/05/14 13:07:54;;;;;;;;;;;22.30;64.50;;;;;;5030126;28;20014;-70
2022/05/14 13:10:22;;;;;;;;;;;22.40;64.70;;;;;;5036112;28;19958;-70
2022/05/14 13:12:58;;;;;;;;;;;22.50;64.30;;;;;;5051072;28;19917;-70
2022/05/14 13:15:31;;;;;;;;;;;22.60;64.00;;;;;;5027822;28;20059;-70
2022/05/14 13:17:57;;;;;;;;;;;22.60;63.70;;;;;;5043965;28;19913;-70
2022/05/14 13:20:23;;;;;;;;;;;22.80;63.70;;;;;;5035413;28;20659;-70
2022/05/14 13:22:49;;;;;;;;;;;22.80;63.40;;;;;;5029394;28;19924;-70
2022/05/14 13:25:26;;;;;;;;;;;22.70;64.00;;;;;;5031455;28;19924;-70
2022/05/14 13:27:52;;;;;;;;;;;22.60;63.20;;;;;;5030262;28;19929;-70
2022/05/14 13:30:19;;;;;;;;;;;22.60;63.90;;;;;;5042590;28;20522;-70
2022/05/14 13:32:44;;;;;;;;;;;22.60;64.10;;;;;;5039969;28;19920;-70
2022/05/14 13:38:07;;;;;;;;;;;22.70;63.70;;;;;;5043011;28;19919;-71
2022/05/14 13:40:46;;;;;;;;;;;22.70;64.60;;;;;;5038144;28;19916;-70
2022/05/14 13:43:12;;;;;;;;;;;22.70;64.00;;;;;;5042950;28;20656;-70
2022/05/14 13:45:38;;;;;;;;;;;22.90;63.90;;;;;;5039680;28;19917;-70
2022/05/14 13:48:06;;;;;;;;;;;22.90;64.00;;;;;;5039632;28;19924;-70
2022/05/14 13:50:37;;;;;;;;;;;22.80;64.10;;;;;;5041631;28;20027;-71
2022/05/14 13:53:04;;;;;;;;;;;22.80;64.10;;;;;;5054776;28;19913;-70
2022/05/14 13:55:34;;;;;;;;;;;22.80;64.60;;;;;;5034380;28;19916;-70
2022/05/14 13:58:02;;;;;;;;;;;22.80;64.00;;;;;;5067359;28;20122;-70
2022/05/14 14:00:32;;;;;;;;;;;22.90;64.30;;;;;;5063933;28;20035;-70
2022/05/14 14:03:00;;;;;;;;;;;23.00;63.20;;;;;;5043335;28;20520;-70
2022/05/14 14:05:26;;;;;;;;;;;23.10;63.30;;;;;;5042972;28;20679;-70
2022/05/14 14:07:52;;;;;;;;;;;23.20;62.80;;;;;;5063102;28;19916;-70
2022/05/14 14:10:20;;;;;;;;;;;23.30;61.60;;;;;;5045735;28;19913;-70
2022/05/14 14:12:46;;;;;;;;;;;23.40;61.20;;;;;;5062388;28;19913;-70
2022/05/14 14:15:16;;;;;;;;;;;23.50;61.70;;;;;;5028880;28;19912;-70
2022/05/14 14:17:43;;;;;;;;;;;23.50;61.60;;;;;;5045805;28;19935;-70
2022/05/14 14:20:09;;;;;;;;;;;23.60;60.70;;;;;;5041698;28;19912;-71
2022/05/14 14:22:35;;;;;;;;;;;23.70;59.60;;;;;;5063980;28;20390;-70
2022/05/14 14:25:00;;;;;;;;;;;23.70;59.70;;;;;;5048609;28;19917;-70
2022/05/14 14:27:26;;;;;;;;;;;23.90;59.00;;;;;;5062997;28;20009;-70
2022/05/14 14:29:57;;;;;;;;;;;23.90;59.80;;;;;;5066253;28;19917;-70
2022/05/14 14:32:23;;;;;;;;;;;24.00;60.00;;;;;;5051282;28;19913;-70
2022/05/14 14:34:48;;;;;;;;;;;24.10;58.30;;;;;;5047437;28;19920;-70
2022/05/14 14:37:14;;;;;;;;;;;24.20;57.90;;;;;;5027830;28;19917;-70
2022/05/14 14:39:39;;;;;;;;;;;24.20;57.40;;;;;;5047575;28;19956;-70
2022/05/14 14:42:05;;;;;;;;;;;24.40;56.30;;;;;;5050039;28;19963;-71
2022/05/14 14:44:31;;;;;;;;;;;24.50;55.80;;;;;;5065971;28;19913;-70
2022/05/14 14:46:58;;;;;;;;;;;24.60;55.70;;;;;;5063380;28;20643;-70